Time,TemperatureF,DewpointF,PressureIn,WindDirection,WindDirectionDegrees,WindSpeedMPH,WindSpeedGustMPH,Humidity,HourlyPrecipIn,Conditions,Clouds,dailyrainin,SoftwareType,DateUTC
2013-05-18 00:01:00,66.7,61.0,29.86,SE,135,0.0,0.0,82,0.00,,,0.00,meteohub,2013-05-18 05:01:00,
2013-05-18 00:06:00,66.7,61.0,29.86,SE,135,0.0,0.0,82,0.00,,,0.00,meteohub,2013-05-18 05:06:00,
2013-05-18 00:11:00,66.6,61.2,29.86,SE,135,0.0,0.0,83,0.00,,,0.00,meteohub,2013-05-18 05:11:00,
2013-05-18 00:16:00,66.6,61.2,29.87,SE,135,0.0,0.0,83,0.00,,,0.00,meteohub,2013-05-18 05:16:00,
2013-05-18 00:21:00,66.6,61.2,29.87,SE,135,0.0,0.0,83,0.00,,,0.00,meteohub,2013-05-18 05:21:00,
2013-05-18 00:26:00,66.6,61.2,29.87,SE,135,0.0,0.0,83,0.00,,,0.00,meteohub,2013-05-18 05:26:00,
2013-05-18 00:31:00,66.6,61.2,29.87,SE,135,0.0,0.0,83,0.00,,,0.00,meteohub,2013-05-18 05:31:00,
2013-05-18 00:36:00,66.6,61.2,29.87,SE,135,0.0,0.0,83,0.00,,,0.00,meteohub,2013-05-18 05:36:00,
2013-05-18 00:41:00,66.4,61.0,29.87,SE,135,0.0,0.0,83,0.00,,,0.00,meteohub,2013-05-18 05:41:00,
2013-05-18 00:46:00,66.4,61.0,29.86,SE,135,0.0,0.0,83,0.00,,,0.00,meteohub,2013-05-18 05:46:00,
2013-05-18 00:51:00,66.0,61.0,29.86,SE,135,0.0,0.0,84,0.00,,,0.00,meteohub,2013-05-18 05:51:00,
2013-05-18 00:56:00,66.0,61.0,29.86,SE,135,0.0,0.0,84,0.00,,,0.00,meteohub,2013-05-18 05:56:00,
2013-05-18 01:01:00,66.0,61.0,29.86,SE,135,1.0,0.0,84,0.00,,,0.00,meteohub,2013-05-18 06:01:00,
2013-05-18 01:06:00,65.8,60.8,29.86,SE,135,0.0,0.0,84,0.00,,,0.00,meteohub,2013-05-18 06:06:00,
2013-05-18 01:11:00,65.8,60.8,29.86,SE,135,0.0,2.0,84,0.00,,,0.00,meteohub,2013-05-18 06:11:00,
2013-05-18 01:16:00,65.8,60.8,29.86,SE,135,0.0,2.0,84,0.00,,,0.00,meteohub,2013-05-18 06:16:00,
2013-05-18 01:21:00,65.8,60.8,29.85,SE,135,0.0,2.0,84,0.00,,,0.00,meteohub,2013-05-18 06:21:00,
2013-05-18 01:26:00,65.7,60.6,29.85,SE,135,0.0,2.0,84,0.00,,,0.00,meteohub,2013-05-18 06:26:00,
2013-05-18 01:31:00,65.7,60.6,29.85,SE,135,0.0,2.0,84,0.00,,,0.00,meteohub,2013-05-18 06:31:00,
2013-05-18 01:36:00,65.5,60.4,29.85,SE,135,0.0,2.0,84,0.00,,,0.00,meteohub,2013-05-18 06:36:00,
2013-05-18 01:41:00,65.3,60.6,29.85,SE,135,0.0,0.0,85,0.00,,,0.00,meteohub,2013-05-18 06:41:00,
2013-05-18 01:46:00,65.1,60.4,29.85,SE,135,0.0,0.0,85,0.00,,,0.00,meteohub,2013-05-18 06:46:00,
2013-05-18 01:51:00,64.9,60.3,29.85,SE,135,0.0,0.0,85,0.00,,,0.00,meteohub,2013-05-18 06:51:00,
2013-05-18 01:56:00,64.9,60.6,29.84,SE,135,0.0,0.0,86,0.00,,,0.00,meteohub,2013-05-18 06:56:00,
2013-05-18 02:01:00,64.8,60.4,29.84,SE,135,0.0,0.0,86,0.00,,,0.00,meteohub,2013-05-18 07:01:00,
2013-05-18 02:06:00,64.6,60.3,29.84,SE,135,0.0,0.0,86,0.00,,,0.00,meteohub,2013-05-18 07:06:00,
2013-05-18 02:11:00,64.6,60.6,29.84,SE,135,0.0,0.0,87,0.00,,,0.00,meteohub,2013-05-18 07:11:00,
2013-05-18 02:16:00,64.2,60.3,29.84,SE,135,0.0,0.0,87,0.00,,,0.00,meteohub,2013-05-18 07:16:00,
2013-05-18 02:21:00,64.2,60.3,29.84,SE,135,0.0,0.0,87,0.00,,,0.00,meteohub,2013-05-18 07:21:00,
2013-05-18 02:26:00,64.0,60.1,29.84,SE,135,0.0,0.0,87,0.00,,,0.00,meteohub,2013-05-18 07:26:00,
2013-05-18 02:31:00,64.0,60.4,29.84,SE,135,0.0,0.0,88,0.00,,,0.00,meteohub,2013-05-18 07:31:00,
2013-05-18 02:36:00,64.0,60.4,29.84,SE,135,0.0,0.0,88,0.00,,,0.00,meteohub,2013-05-18 07:36:00,
2013-05-18 02:41:00,63.9,60.3,29.84,SE,135,0.0,1.0,88,0.00,,,0.00,meteohub,2013-05-18 07:41:00,
2013-05-18 02:46:00,64.0,60.8,29.84,SE,135,0.0,1.0,89,0.00,,,0.00,meteohub,2013-05-18 07:46:00,
2013-05-18 02:51:00,64.0,60.8,29.84,SE,135,0.0,1.0,89,0.00,,,0.00,meteohub,2013-05-18 07:51:00,
2013-05-18 02:56:00,64.0,60.8,29.84,SE,135,0.0,1.0,89,0.00,,,0.00,meteohub,2013-05-18 07:56:00,
2013-05-18 03:01:00,64.0,60.8,29.84,SE,135,0.0,1.0,89,0.00,,,0.00,meteohub,2013-05-18 08:01:00,
2013-05-18 03:06:00,64.0,61.0,29.84,SE,135,0.0,1.0,90,0.00,,,0.00,meteohub,2013-05-18 08:06:00,
2013-05-18 03:11:00,64.0,61.0,29.84,SE,135,0.0,1.0,90,0.00,,,0.00,meteohub,2013-05-18 08:11:00,
2013-05-18 03:16:00,64.0,61.0,29.84,SE,135,0.0,1.0,90,0.00,,,0.00,meteohub,2013-05-18 08:16:00,
2013-05-18 03:21:00,64.0,61.0,29.84,SE,135,0.0,1.0,90,0.00,,,0.00,meteohub,2013-05-18 08:21:00,
2013-05-18 03:26:00,63.9,60.6,29.83,SE,135,0.0,1.0,89,0.00,,,0.00,meteohub,2013-05-18 08:26:00,
2013-05-18 03:31:00,63.9,60.6,29.83,SE,135,0.0,0.0,89,0.00,,,0.00,meteohub,2013-05-18 08:31:00,
2013-05-18 03:36:00,63.9,60.8,29.83,SE,135,0.0,0.0,90,0.00,,,0.00,meteohub,2013-05-18 08:36:00,
2013-05-18 03:41:00,63.7,60.6,29.83,SE,135,0.0,0.0,90,0.00,,,0.00,meteohub,2013-05-18 08:41:00,
2013-05-18 03:46:00,63.7,60.6,29.83,SE,135,0.0,0.0,90,0.00,,,0.00,meteohub,2013-05-18 08:46:00,
2013-05-18 03:51:00,63.7,60.6,29.83,SE,135,0.0,1.0,90,0.00,,,0.00,meteohub,2013-05-18 08:51:00,
2013-05-18 03:56:00,63.7,60.6,29.84,SE,135,0.0,1.0,90,0.00,,,0.00,meteohub,2013-05-18 08:56:00,
2013-05-18 04:01:00,63.5,60.4,29.84,SE,135,0.0,0.0,90,0.00,,,0.00,meteohub,2013-05-18 09:01:00,
2013-05-18 04:06:00,63.3,60.3,29.83,SE,135,0.0,0.0,90,0.00,,,0.00,meteohub,2013-05-18 09:06:00,
2013-05-18 04:11:00,63.3,60.3,29.84,SE,135,0.0,0.0,90,0.00,,,0.00,meteohub,2013-05-18 09:11:00,
2013-05-18 04:16:00,63.3,60.3,29.83,SE,135,0.0,0.0,90,0.00,,,0.00,meteohub,2013-05-18 09:16:00,
2013-05-18 04:21:00,63.1,60.1,29.83,SE,135,0.0,0.0,90,0.00,,,0.00,meteohub,2013-05-18 09:21:00,
2013-05-18 04:26:00,63.1,60.1,29.83,SE,135,0.0,0.0,90,0.00,,,0.00,meteohub,2013-05-18 09:26:00,
2013-05-18 04:31:00,63.1,60.1,29.83,SE,135,0.0,0.0,90,0.00,,,0.00,meteohub,2013-05-18 09:31:00,
2013-05-18 04:36:00,63.0,59.9,29.83,SE,135,0.0,0.0,90,0.00,,,0.00,meteohub,2013-05-18 09:36:00,
2013-05-18 04:41:00,63.0,59.9,29.83,SE,135,0.0,0.0,90,0.00,,,0.00,meteohub,2013-05-18 09:41:00,
2013-05-18 04:47:00,62.8,60.1,29.83,SE,135,0.0,0.0,91,0.00,,,0.00,meteohub,2013-05-18 09:47:00,
2013-05-18 04:52:00,62.8,60.1,29.83,SE,135,0.0,0.0,91,0.00,,,0.00,meteohub,2013-05-18 09:52:00,
2013-05-18 04:56:00,62.8,60.1,29.83,SE,135,1.0,0.0,91,0.00,,,0.00,meteohub,2013-05-18 09:56:00,
2013-05-18 05:01:00,62.8,60.1,29.83,SE,135,0.0,0.0,91,0.00,,,0.00,meteohub,2013-05-18 10:01:00,
2013-05-18 05:07:00,62.8,60.1,29.82,SE,135,0.0,0.0,91,0.00,,,0.00,meteohub,2013-05-18 10:07:00,
2013-05-18 05:12:00,62.4,59.7,29.82,SE,135,0.0,0.0,91,0.00,,,0.00,meteohub,2013-05-18 10:12:00,
2013-05-18 05:17:00,62.4,60.1,29.82,SSE,148,1.0,0.0,92,0.00,,,0.00,meteohub,2013-05-18 10:17:00,
2013-05-18 05:22:00,62.2,59.9,29.82,SE,144,0.0,3.0,92,0.00,,,0.00,meteohub,2013-05-18 10:22:00,
2013-05-18 05:27:00,62.2,59.9,29.83,SE,144,0.0,3.0,92,0.00,,,0.00,meteohub,2013-05-18 10:27:00,
2013-05-18 05:32:00,62.1,59.7,29.83,SE,144,0.0,3.0,92,0.00,,,0.00,meteohub,2013-05-18 10:32:00,
2013-05-18 05:37:00,61.9,59.5,29.83,SE,144,0.0,3.0,92,0.00,,,0.00,meteohub,2013-05-18 10:37:00,
2013-05-18 05:42:00,61.9,59.5,29.83,SE,144,0.0,3.0,92,0.00,,,0.00,meteohub,2013-05-18 10:42:00,
2013-05-18 05:47:00,61.9,59.9,29.83,SE,144,0.0,1.0,93,0.00,,,0.00,meteohub,2013-05-18 10:47:00,
2013-05-18 05:52:00,62.1,60.1,29.83,SE,144,0.0,1.0,93,0.00,,,0.00,meteohub,2013-05-18 10:52:00,
2013-05-18 05:57:00,62.1,60.1,29.83,SE,142,0.0,1.0,93,0.00,,,0.00,meteohub,2013-05-18 10:57:00,
2013-05-18 06:02:00,62.1,60.1,29.83,SE,142,0.0,1.0,93,0.00,,,0.00,meteohub,2013-05-18 11:02:00,
2013-05-18 06:07:00,62.1,60.1,29.83,SE,142,0.0,1.0,93,0.00,,,0.00,meteohub,2013-05-18 11:07:00,
2013-05-18 06:12:00,62.2,60.3,29.83,SE,142,0.0,1.0,93,0.00,,,0.00,meteohub,2013-05-18 11:12:00,
2013-05-18 06:17:00,62.2,60.3,29.83,SE,142,0.0,1.0,93,0.00,,,0.00,meteohub,2013-05-18 11:17:00,
2013-05-18 06:22:00,62.2,60.3,29.83,SE,142,0.0,1.0,93,0.00,,,0.00,meteohub,2013-05-18 11:22:00,
2013-05-18 06:27:00,62.2,60.3,29.83,SE,142,0.0,1.0,93,0.00,,,0.00,meteohub,2013-05-18 11:27:00,
2013-05-18 06:32:00,62.2,60.3,29.83,SE,142,0.0,1.0,93,0.00,,,0.00,meteohub,2013-05-18 11:32:00,
2013-05-18 06:37:00,62.2,60.3,29.83,SE,132,0.0,1.0,93,0.00,,,0.00,meteohub,2013-05-18 11:37:00,
2013-05-18 06:42:00,62.2,60.3,29.83,SE,132,0.0,2.0,93,0.00,,,0.00,meteohub,2013-05-18 11:42:00,
2013-05-18 06:47:00,62.4,60.4,29.84,SE,132,0.0,2.0,93,0.00,,,0.00,meteohub,2013-05-18 11:47:00,
2013-05-18 06:52:00,62.6,60.6,29.84,SE,132,0.0,2.0,93,0.00,,,0.00,meteohub,2013-05-18 11:52:00,
2013-05-18 06:57:00,62.8,60.8,29.85,SE,132,0.0,2.0,93,0.00,,,0.00,meteohub,2013-05-18 11:57:00,
2013-05-18 07:02:00,62.8,60.4,29.85,SE,132,1.0,2.0,92,0.00,,,0.00,meteohub,2013-05-18 12:02:00,
2013-05-18 07:07:00,63.0,60.6,29.85,SE,132,0.0,2.0,92,0.00,,,0.00,meteohub,2013-05-18 12:07:00,
2013-05-18 07:12:00,63.1,60.8,29.84,SE,132,0.0,2.0,92,0.00,,,0.00,meteohub,2013-05-18 12:12:00,
2013-05-18 07:17:00,63.1,60.8,29.84,SE,132,0.0,2.0,92,0.00,,,0.00,meteohub,2013-05-18 12:17:00,
2013-05-18 07:22:00,63.3,61.0,29.85,SE,132,0.0,2.0,92,0.00,,,0.00,meteohub,2013-05-18 12:22:00,
2013-05-18 07:27:00,63.7,61.3,29.84,SE,132,0.0,2.0,92,0.00,,,0.00,meteohub,2013-05-18 12:27:00,
2013-05-18 07:32:00,63.9,61.2,29.84,SE,132,0.0,2.0,91,0.00,,,0.00,meteohub,2013-05-18 12:32:00,
2013-05-18 07:37:00,63.9,61.2,29.84,SE,132,0.0,2.0,91,0.00,,,0.00,meteohub,2013-05-18 12:37:00,
2013-05-18 07:42:00,64.0,61.3,29.83,SE,132,0.0,2.0,91,0.00,,,0.00,meteohub,2013-05-18 12:42:00,
2013-05-18 07:47:00,64.2,61.5,29.84,SE,132,0.0,1.0,91,0.00,,,0.00,meteohub,2013-05-18 12:47:00,
2013-05-18 07:52:00,64.6,61.5,29.84,SE,132,0.0,1.0,90,0.00,,,0.00,meteohub,2013-05-18 12:52:00,
2013-05-18 07:57:00,64.8,61.7,29.84,SE,132,0.0,1.0,90,0.00,,,0.00,meteohub,2013-05-18 12:57:00,
2013-05-18 08:02:00,65.3,62.2,29.83,SE,132,0.0,1.0,90,0.00,,,0.00,meteohub,2013-05-18 13:02:00,
2013-05-18 08:07:00,65.8,62.4,29.83,ESE,115,1.0,1.0,89,0.00,,,0.00,meteohub,2013-05-18 13:07:00,
2013-05-18 08:12:00,66.4,62.8,29.83,East,101,2.0,2.0,88,0.00,,,0.00,meteohub,2013-05-18 13:12:00,
2013-05-18 08:17:00,67.1,63.5,29.82,East,88,2.0,3.0,88,0.00,,,0.00,meteohub,2013-05-18 13:17:00,
2013-05-18 08:22:00,67.6,63.7,29.82,ESE,109,1.0,3.0,87,0.00,,,0.00,meteohub,2013-05-18 13:22:00,
2013-05-18 08:27:00,68.4,64.0,29.82,SE,128,3.0,3.0,86,0.00,,,0.00,meteohub,2013-05-18 13:27:00,
2013-05-18 08:32:00,68.9,64.2,29.82,East,97,2.0,3.0,85,0.00,,,0.00,meteohub,2013-05-18 13:32:00,
2013-05-18 08:37:00,69.6,64.9,29.81,East,80,0.0,3.0,85,0.00,,,0.00,meteohub,2013-05-18 13:37:00,
2013-05-18 08:42:00,70.3,64.9,29.81,ESE,106,4.0,10.0,83,0.00,,,0.00,meteohub,2013-05-18 13:42:00,
2013-05-18 08:47:00,71.1,65.3,29.81,SE,127,0.0,10.0,82,0.00,,,0.00,meteohub,2013-05-18 13:47:00,
2013-05-18 08:52:00,71.8,65.7,29.81,ESE,113,2.0,10.0,81,0.00,,,0.00,meteohub,2013-05-18 13:52:00,
2013-05-18 08:57:00,72.1,65.7,29.81,East,99,2.0,10.0,80,0.00,,,0.00,meteohub,2013-05-18 13:57:00,
2013-05-18 09:02:00,72.7,65.8,29.81,East,84,3.0,7.0,79,0.00,,,0.00,meteohub,2013-05-18 14:02:00,
2013-05-18 09:07:00,73.0,66.2,29.81,ESE,107,4.0,7.0,79,0.00,,,0.00,meteohub,2013-05-18 14:07:00,
2013-05-18 09:12:00,73.8,66.0,29.81,SSE,150,6.0,7.0,77,0.00,,,0.00,meteohub,2013-05-18 14:12:00,
2013-05-18 09:17:00,74.3,66.2,29.81,SE,126,3.0,7.0,76,0.00,,,0.00,meteohub,2013-05-18 14:17:00,
2013-05-18 09:22:00,74.8,66.7,29.81,SE,127,3.0,7.0,76,0.00,,,0.00,meteohub,2013-05-18 14:22:00,
2013-05-18 09:27:00,75.4,66.6,29.81,SSE,161,3.0,7.0,74,0.00,,,0.00,meteohub,2013-05-18 14:27:00,
2013-05-18 09:32:00,75.6,66.7,29.81,SSE,165,4.0,11.0,74,0.00,,,0.00,meteohub,2013-05-18 14:32:00,
2013-05-18 09:37:00,75.9,66.6,29.81,ESE,113,6.0,11.0,73,0.00,,,0.00,meteohub,2013-05-18 14:37:00,
2013-05-18 09:42:00,76.5,67.1,29.81,NE,54,4.0,11.0,73,0.00,,,0.00,meteohub,2013-05-18 14:42:00,
2013-05-18 09:47:00,76.6,66.9,29.81,SSE,150,5.0,11.0,72,0.00,,,0.00,meteohub,2013-05-18 14:47:00,
2013-05-18 09:52:00,77.2,67.1,29.81,SE,134,3.0,11.0,71,0.00,,,0.00,meteohub,2013-05-18 14:52:00,
2013-05-18 09:57:00,77.7,66.7,29.81,ESE,115,7.0,11.0,69,0.00,,,0.00,meteohub,2013-05-18 14:57:00,
2013-05-18 10:02:00,78.1,67.1,29.80,SSE,155,4.0,11.0,69,0.00,,,0.00,meteohub,2013-05-18 15:02:00,
2013-05-18 10:07:00,78.3,67.3,29.81,SE,131,7.0,11.0,69,0.00,,,0.00,meteohub,2013-05-18 15:07:00,
2013-05-18 10:12:00,78.4,66.9,29.80,SSE,150,11.0,11.0,68,0.00,,,0.00,meteohub,2013-05-18 15:12:00,
2013-05-18 10:17:00,78.4,67.5,29.80,SE,129,5.0,11.0,69,0.00,,,0.00,meteohub,2013-05-18 15:17:00,
2013-05-18 10:22:00,78.8,67.8,29.80,ESE,117,5.0,13.0,69,0.00,,,0.00,meteohub,2013-05-18 15:22:00,
2013-05-18 10:27:00,79.0,67.5,29.80,SSW,208,9.0,13.0,68,0.00,,,0.00,meteohub,2013-05-18 15:27:00,
2013-05-18 10:32:00,79.3,67.8,29.82,SSE,159,4.0,13.0,68,0.00,,,0.00,meteohub,2013-05-18 15:32:00,
2013-05-18 10:37:00,79.5,67.6,29.82,ESE,119,5.0,13.0,67,0.00,,,0.00,meteohub,2013-05-18 15:37:00,
2013-05-18 10:42:00,79.3,67.8,29.82,SE,139,9.0,13.0,68,0.00,,,0.00,meteohub,2013-05-18 15:42:00,
2013-05-18 10:47:00,79.3,67.8,29.82,SSE,155,3.0,13.0,68,0.00,,,0.00,meteohub,2013-05-18 15:47:00,
2013-05-18 10:52:00,79.5,68.5,29.82,SE,134,14.0,14.0,69,0.00,,,0.00,meteohub,2013-05-18 15:52:00,
2013-05-18 10:57:00,79.3,68.4,29.82,SSE,151,9.0,13.0,69,0.00,,,0.00,meteohub,2013-05-18 15:57:00,
2013-05-18 11:02:00,79.3,68.4,29.81,SE,138,6.0,13.0,69,0.00,,,0.00,meteohub,2013-05-18 16:02:00,
2013-05-18 11:07:00,79.3,68.4,29.81,ESE,109,3.0,13.0,69,0.00,,,0.00,meteohub,2013-05-18 16:07:00,
2013-05-18 11:12:00,79.9,68.7,29.81,SE,130,4.0,14.0,69,0.00,,,0.00,meteohub,2013-05-18 16:12:00,
2013-05-18 11:17:00,80.2,69.1,29.80,SSE,154,5.0,14.0,69,0.00,,,0.00,meteohub,2013-05-18 16:17:00,
2013-05-18 11:22:00,81.0,69.4,29.80,SSE,158,10.0,14.0,68,0.00,,,0.00,meteohub,2013-05-18 16:22:00,
2013-05-18 11:27:00,81.5,69.4,29.80,SE,126,7.0,14.0,67,0.00,,,0.00,meteohub,2013-05-18 16:27:00,
2013-05-18 11:32:00,81.1,69.1,29.80,SSE,150,9.0,14.0,67,0.00,,,0.00,meteohub,2013-05-18 16:32:00,
2013-05-18 11:37:00,81.3,69.3,29.80,SSE,161,10.0,18.0,67,0.00,,,0.00,meteohub,2013-05-18 16:37:00,
2013-05-18 11:42:00,81.0,68.9,29.80,SE,127,9.0,18.0,67,0.00,,,0.00,meteohub,2013-05-18 16:42:00,
2013-05-18 11:47:00,80.8,68.7,29.80,SSE,160,11.0,18.0,67,0.00,,,0.00,meteohub,2013-05-18 16:47:00,
2013-05-18 11:52:00,80.8,69.3,29.80,SE,124,7.0,18.0,68,0.00,,,0.00,meteohub,2013-05-18 16:52:00,
2013-05-18 11:57:00,81.0,69.4,29.80,SSE,168,8.0,16.0,68,0.00,,,0.00,meteohub,2013-05-18 16:57:00,
2013-05-18 12:02:00,80.8,69.3,29.80,SE,132,5.0,16.0,68,0.00,,,0.00,meteohub,2013-05-18 17:02:00,
2013-05-18 12:07:00,81.0,69.4,29.79,ESE,103,10.0,16.0,68,0.00,,,0.00,meteohub,2013-05-18 17:07:00,
2013-05-18 12:12:00,80.8,69.3,29.80,SSE,157,7.0,16.0,68,0.00,,,0.00,meteohub,2013-05-18 17:12:00,
2013-05-18 12:17:00,81.0,69.8,29.80,South,170,6.0,16.0,69,0.00,,,0.00,meteohub,2013-05-18 17:17:00,
2013-05-18 12:22:00,81.1,69.6,29.80,ESE,119,10.0,16.0,68,0.00,,,0.00,meteohub,2013-05-18 17:22:00,
2013-05-18 12:27:00,81.1,69.6,29.79,ESE,114,4.0,14.0,68,0.00,,,0.00,meteohub,2013-05-18 17:27:00,
2013-05-18 12:32:00,81.3,69.8,29.79,SE,139,4.0,14.0,68,0.00,,,0.00,meteohub,2013-05-18 17:32:00,
2013-05-18 12:37:00,81.3,69.8,29.79,SE,133,7.0,14.0,68,0.00,,,0.00,meteohub,2013-05-18 17:37:00,
2013-05-18 12:42:00,81.3,69.3,29.79,ESE,118,11.0,14.0,67,0.00,,,0.00,meteohub,2013-05-18 17:42:00,
2013-05-18 12:47:00,81.5,70.0,29.79,ESE,102,9.0,14.0,68,0.00,,,0.00,meteohub,2013-05-18 17:47:00,
2013-05-18 12:52:00,81.5,69.4,29.79,ENE,74,4.0,14.0,67,0.00,,,0.00,meteohub,2013-05-18 17:52:00,
2013-05-18 12:57:00,81.5,69.4,29.79,ESE,119,4.0,15.0,67,0.00,,,0.00,meteohub,2013-05-18 17:57:00,
2013-05-18 13:02:00,81.3,69.3,29.79,SSE,152,9.0,15.0,67,0.00,,,0.00,meteohub,2013-05-18 18:02:00,
2013-05-18 13:07:00,81.9,69.8,29.78,SE,136,7.0,15.0,67,0.00,,,0.00,meteohub,2013-05-18 18:07:00,
2013-05-18 13:12:00,82.0,69.6,29.78,ESE,119,5.0,15.0,66,0.00,,,0.00,meteohub,2013-05-18 18:12:00,
2013-05-18 13:17:00,82.2,69.8,29.78,ESE,118,4.0,14.0,66,0.00,,,0.00,meteohub,2013-05-18 18:17:00,
2013-05-18 13:22:00,82.0,69.6,29.78,SE,142,4.0,14.0,66,0.00,,,0.00,meteohub,2013-05-18 18:22:00,
2013-05-18 13:27:00,81.9,69.4,29.78,ESE,120,3.0,14.0,66,0.00,,,0.00,meteohub,2013-05-18 18:27:00,
2013-05-18 13:32:00,81.9,69.4,29.77,SE,132,6.0,14.0,66,0.00,,,0.00,meteohub,2013-05-18 18:32:00,
2013-05-18 13:37:00,81.9,69.8,29.77,SE,136,9.0,14.0,67,0.00,,,0.00,meteohub,2013-05-18 18:37:00,
2013-05-18 13:42:00,81.9,69.8,29.76,SE,144,7.0,14.0,67,0.00,,,0.00,meteohub,2013-05-18 18:42:00,
2013-05-18 13:47:00,81.9,70.3,29.76,SSE,150,10.0,14.0,68,0.00,,,0.00,meteohub,2013-05-18 18:47:00,
2013-05-18 13:52:00,82.0,70.0,29.76,ESE,105,12.0,15.0,67,0.00,,,0.00,meteohub,2013-05-18 18:52:00,
2013-05-18 13:57:00,82.0,69.6,29.76,ESE,113,5.0,15.0,66,0.00,,,0.00,meteohub,2013-05-18 18:57:00,
2013-05-18 14:02:00,82.0,70.0,29.76,SSE,155,10.0,18.0,67,0.00,,,0.00,meteohub,2013-05-18 19:02:00,
2013-05-18 14:07:00,81.9,69.8,29.76,SSE,164,7.0,18.0,67,0.00,,,0.00,meteohub,2013-05-18 19:07:00,
2013-05-18 14:12:00,81.7,70.2,29.76,SE,138,7.0,18.0,68,0.00,,,0.00,meteohub,2013-05-18 19:12:00,
2013-05-18 14:17:00,81.3,69.8,29.77,SSE,157,5.0,16.0,68,0.00,,,0.00,meteohub,2013-05-18 19:17:00,
2013-05-18 14:22:00,81.1,70.0,29.76,ESE,110,4.0,16.0,69,0.00,,,0.00,meteohub,2013-05-18 19:22:00,
2013-05-18 14:27:00,81.0,69.8,29.76,SSE,160,6.0,16.0,69,0.00,,,0.00,meteohub,2013-05-18 19:27:00,
2013-05-18 14:32:00,81.0,69.8,29.76,SSE,167,12.0,14.0,69,0.00,,,0.00,meteohub,2013-05-18 19:32:00,
2013-05-18 14:37:00,81.1,70.0,29.76,SE,137,7.0,14.0,69,0.00,,,0.00,meteohub,2013-05-18 19:37:00,
2013-05-18 14:42:00,81.1,70.3,29.76,SE,128,4.0,14.0,70,0.00,,,0.00,meteohub,2013-05-18 19:42:00,
2013-05-18 14:47:00,81.3,70.2,29.76,ESE,119,5.0,14.0,69,0.00,,,0.00,meteohub,2013-05-18 19:47:00,
2013-05-18 14:52:00,81.7,70.5,29.76,SE,143,5.0,12.0,69,0.00,,,0.00,meteohub,2013-05-18 19:52:00,
2013-05-18 14:57:00,81.9,70.7,29.75,SE,146,7.0,12.0,69,0.00,,,0.00,meteohub,2013-05-18 19:57:00,
2013-05-18 15:02:00,82.0,70.3,29.75,South,171,4.0,12.0,68,0.00,,,0.00,meteohub,2013-05-18 20:02:00,
2013-05-18 15:07:00,82.0,70.3,29.75,SE,139,3.0,12.0,68,0.00,,,0.00,meteohub,2013-05-18 20:07:00,
2013-05-18 15:12:00,82.2,71.1,29.75,SE,138,9.0,12.0,69,0.00,,,0.00,meteohub,2013-05-18 20:12:00,
2013-05-18 15:17:00,82.2,71.1,29.75,SE,139,4.0,14.0,69,0.00,,,0.00,meteohub,2013-05-18 20:17:00,
2013-05-18 15:22:00,82.2,71.1,29.75,SE,126,7.0,14.0,69,0.00,,,0.00,meteohub,2013-05-18 20:22:00,
2013-05-18 15:27:00,82.2,70.5,29.75,ESE,121,5.0,14.0,68,0.00,,,0.00,meteohub,2013-05-18 20:27:00,
2013-05-18 15:32:00,82.6,70.9,29.75,ESE,118,4.0,11.0,68,0.00,,,0.00,meteohub,2013-05-18 20:32:00,
2013-05-18 15:37:00,82.8,71.6,29.75,SE,134,3.0,11.0,69,0.00,,,0.00,meteohub,2013-05-18 20:37:00,
2013-05-18 15:42:00,82.8,71.6,29.75,ESE,119,5.0,11.0,69,0.00,,,0.00,meteohub,2013-05-18 20:42:00,
2013-05-18 15:47:00,82.8,71.6,29.74,SSE,154,5.0,11.0,69,0.00,,,0.00,meteohub,2013-05-18 20:47:00,
2013-05-18 15:52:00,82.9,71.2,29.74,SSE,161,10.0,13.0,68,0.00,,,0.00,meteohub,2013-05-18 20:52:00,
2013-05-18 15:57:00,83.3,71.6,29.74,SSE,154,4.0,13.0,68,0.00,,,0.00,meteohub,2013-05-18 20:57:00,
2013-05-18 16:02:00,83.8,71.8,29.73,ESE,102,6.0,14.0,67,0.00,,,0.00,meteohub,2013-05-18 21:02:00,
2013-05-18 16:08:00,83.7,71.6,29.73,SE,125,8.0,14.0,67,0.00,,,0.00,meteohub,2013-05-18 21:08:00,
2013-05-18 16:13:00,83.5,71.8,29.74,East,88,5.0,14.0,68,0.00,,,0.00,meteohub,2013-05-18 21:13:00,
2013-05-18 16:18:00,83.1,71.4,29.73,ESE,114,3.0,14.0,68,0.00,,,0.00,meteohub,2013-05-18 21:18:00,
2013-05-18 16:23:00,83.1,71.4,29.73,SSE,155,4.0,14.0,68,0.00,,,0.00,meteohub,2013-05-18 21:23:00,
2013-05-18 16:28:00,82.9,71.2,29.73,SSE,163,9.0,14.0,68,0.00,,,0.00,meteohub,2013-05-18 21:28:00,
2013-05-18 16:33:00,82.9,71.2,29.73,South,173,12.0,16.0,68,0.00,,,0.00,meteohub,2013-05-18 21:33:00,
2013-05-18 16:38:00,82.8,71.6,29.73,East,80,5.0,16.0,69,0.00,,,0.00,meteohub,2013-05-18 21:38:00,
2013-05-18 16:43:00,82.8,71.6,29.73,ESE,108,5.0,16.0,69,0.00,,,0.00,meteohub,2013-05-18 21:43:00,
2013-05-18 16:48:00,82.6,71.4,29.73,SE,141,6.0,16.0,69,0.00,,,0.00,meteohub,2013-05-18 21:48:00,
2013-05-18 16:53:00,82.6,71.8,29.73,ENE,73,6.0,13.0,70,0.00,,,0.00,meteohub,2013-05-18 21:53:00,
2013-05-18 16:58:00,82.6,71.8,29.73,SE,136,5.0,13.0,70,0.00,,,0.00,meteohub,2013-05-18 21:58:00,
2013-05-18 17:03:00,82.4,71.6,29.73,SE,139,7.0,13.0,70,0.00,,,0.00,meteohub,2013-05-18 22:03:00,
2013-05-18 17:08:00,82.2,71.4,29.73,SE,134,7.0,13.0,70,0.00,,,0.00,meteohub,2013-05-18 22:08:00,
2013-05-18 17:13:00,82.2,72.0,29.72,South,175,11.0,13.0,71,0.00,,,0.00,meteohub,2013-05-18 22:13:00,
2013-05-18 17:18:00,82.0,71.8,29.72,SE,138,4.0,14.0,71,0.00,,,0.00,meteohub,2013-05-18 22:18:00,
2013-05-18 17:23:00,82.0,71.8,29.71,ESE,116,9.0,14.0,71,0.00,,,0.00,meteohub,2013-05-18 22:23:00,
2013-05-18 17:28:00,82.0,71.8,29.71,SE,132,4.0,14.0,71,0.00,,,0.00,meteohub,2013-05-18 22:28:00,
2013-05-18 17:33:00,81.9,72.0,29.70,ESE,113,5.0,15.0,72,0.00,,,0.00,meteohub,2013-05-18 22:33:00,
2013-05-18 17:38:00,82.0,72.1,29.70,SE,142,4.0,15.0,72,0.00,,,0.00,meteohub,2013-05-18 22:38:00,
2013-05-18 17:43:00,82.0,71.8,29.69,SE,146,7.0,15.0,71,0.00,,,0.00,meteohub,2013-05-18 22:43:00,
2013-05-18 17:48:00,82.2,72.0,29.70,SE,133,9.0,15.0,71,0.00,,,0.00,meteohub,2013-05-18 22:48:00,
2013-05-18 17:53:00,82.6,72.1,29.70,SE,132,10.0,15.0,71,0.00,,,0.00,meteohub,2013-05-18 22:53:00,
2013-05-18 17:58:00,82.9,72.5,29.69,East,90,3.0,15.0,71,0.00,,,0.00,meteohub,2013-05-18 22:58:00,
2013-05-18 18:03:00,83.1,72.3,29.68,ESE,113,9.0,15.0,70,0.00,,,0.00,meteohub,2013-05-18 23:03:00,
2013-05-18 18:08:00,83.3,72.1,29.68,ESE,111,5.0,15.0,69,0.00,,,0.00,meteohub,2013-05-18 23:08:00,
2013-05-18 18:13:00,83.1,72.3,29.68,SE,124,10.0,15.0,70,0.00,,,0.00,meteohub,2013-05-18 23:13:00,
2013-05-18 18:18:00,83.1,72.3,29.68,ESE,117,6.0,15.0,70,0.00,,,0.00,meteohub,2013-05-18 23:18:00,
2013-05-18 18:23:00,82.9,72.1,29.68,East,92,9.0,17.0,70,0.00,,,0.00,meteohub,2013-05-18 23:23:00,
2013-05-18 18:28:00,82.9,72.5,29.68,SSE,164,12.0,17.0,71,0.00,,,0.00,meteohub,2013-05-18 23:28:00,
2013-05-18 18:33:00,82.9,72.5,29.69,SSE,150,10.0,17.0,71,0.00,,,0.00,meteohub,2013-05-18 23:33:00,
2013-05-18 18:38:00,82.8,72.3,29.68,ESE,119,5.0,17.0,71,0.00,,,0.00,meteohub,2013-05-18 23:38:00,
2013-05-18 18:43:00,82.8,72.9,29.68,SSW,212,7.0,18.0,72,0.00,,,0.00,meteohub,2013-05-18 23:43:00,
2013-05-18 18:48:00,82.4,72.5,29.68,SE,128,6.0,18.0,72,0.00,,,0.00,meteohub,2013-05-18 23:48:00,
2013-05-18 18:53:00,82.2,72.7,29.68,SSE,148,8.0,18.0,73,0.00,,,0.00,meteohub,2013-05-18 23:53:00,
2013-05-18 18:58:00,82.0,72.5,29.67,ESE,122,3.0,18.0,73,0.00,,,0.00,meteohub,2013-05-18 23:58:00,
2013-05-18 19:03:00,81.9,72.7,29.66,East,94,1.0,15.0,74,0.00,,,0.00,meteohub,2013-05-19 00:03:00,
2013-05-18 19:08:00,81.9,72.7,29.66,SE,132,6.0,15.0,74,0.00,,,0.00,meteohub,2013-05-19 00:08:00,
2013-05-18 19:13:00,81.9,72.7,29.66,ESE,113,6.0,15.0,74,0.00,,,0.00,meteohub,2013-05-19 00:13:00,
2013-05-18 19:18:00,81.9,72.7,29.66,SE,136,9.0,15.0,74,0.00,,,0.00,meteohub,2013-05-19 00:18:00,
2013-05-18 19:23:00,81.7,73.0,29.66,SSE,155,6.0,14.0,75,0.00,,,0.00,meteohub,2013-05-19 00:23:00,
2013-05-18 19:28:00,81.7,73.0,29.67,SE,138,9.0,14.0,75,0.00,,,0.00,meteohub,2013-05-19 00:28:00,
2013-05-18 19:33:00,81.7,73.0,29.66,SE,132,5.0,14.0,75,0.00,,,0.00,meteohub,2013-05-19 00:33:00,
2013-05-18 19:38:00,81.3,72.7,29.67,SSE,167,2.0,12.0,75,0.00,,,0.00,meteohub,2013-05-19 00:38:00,
2013-05-18 19:43:00,81.1,72.5,29.66,ENE,78,3.0,12.0,75,0.00,,,0.00,meteohub,2013-05-19 00:43:00,
2013-05-18 19:48:00,81.0,72.3,29.66,SE,131,6.0,12.0,75,0.00,,,0.00,meteohub,2013-05-19 00:48:00,
2013-05-18 19:53:00,80.8,72.5,29.65,East,96,9.0,16.0,76,0.00,,,0.00,meteohub,2013-05-19 00:53:00,
2013-05-18 19:58:00,80.4,72.1,29.65,ESE,122,4.0,16.0,76,0.00,,,0.00,meteohub,2013-05-19 00:58:00,
2013-05-18 20:03:00,80.4,72.1,29.66,ESE,107,7.0,16.0,76,0.00,,,0.00,meteohub,2013-05-19 01:03:00,
2013-05-18 20:08:00,80.2,72.3,29.65,East,81,4.0,16.0,77,0.00,,,0.00,meteohub,2013-05-19 01:08:00,
2013-05-18 20:13:00,80.1,72.1,29.65,ESE,117,3.0,12.0,77,0.00,,,0.00,meteohub,2013-05-19 01:13:00,
2013-05-18 20:18:00,79.9,72.0,29.65,SE,139,5.0,12.0,77,0.00,,,0.00,meteohub,2013-05-19 01:18:00,
2013-05-18 20:23:00,79.9,72.0,29.68,SSE,153,8.0,11.0,77,0.00,,,0.00,meteohub,2013-05-19 01:23:00,
2013-05-18 20:28:00,79.7,71.8,29.67,SE,134,5.0,11.0,77,0.00,,,0.00,meteohub,2013-05-19 01:28:00,
2013-05-18 20:33:00,79.5,72.1,29.68,SSE,156,2.0,11.0,78,0.00,,,0.00,meteohub,2013-05-19 01:33:00,
2013-05-18 20:38:00,79.5,72.1,29.67,ESE,112,4.0,10.0,78,0.00,,,0.00,meteohub,2013-05-19 01:38:00,
2013-05-18 20:43:00,79.3,72.0,29.66,SE,140,3.0,10.0,78,0.00,,,0.00,meteohub,2013-05-19 01:43:00,
2013-05-18 20:48:00,79.3,72.0,29.66,East,101,3.0,10.0,78,0.00,,,0.00,meteohub,2013-05-19 01:48:00,
2013-05-18 20:53:00,79.3,72.0,29.66,ESE,103,2.0,10.0,78,0.00,,,0.00,meteohub,2013-05-19 01:53:00,
2013-05-18 20:58:00,79.3,72.0,29.66,SSE,167,5.0,10.0,78,0.00,,,0.00,meteohub,2013-05-19 01:58:00,
2013-05-18 21:03:00,79.3,72.0,29.66,ESE,122,3.0,10.0,78,0.00,,,0.00,meteohub,2013-05-19 02:03:00,
2013-05-18 21:08:00,79.2,71.8,29.66,SE,130,5.0,10.0,78,0.00,,,0.00,meteohub,2013-05-19 02:08:00,
2013-05-18 21:13:00,79.2,72.1,29.67,SE,129,4.0,10.0,79,0.00,,,0.00,meteohub,2013-05-19 02:13:00,
2013-05-18 21:18:00,79.0,72.0,29.66,SE,130,3.0,10.0,79,0.00,,,0.00,meteohub,2013-05-19 02:18:00,
2013-05-18 21:23:00,79.0,72.0,29.66,ESE,123,3.0,10.0,79,0.00,,,0.00,meteohub,2013-05-19 02:23:00,
2013-05-18 21:28:00,79.0,72.0,29.66,ESE,115,3.0,8.0,79,0.00,,,0.00,meteohub,2013-05-19 02:28:00,
2013-05-18 21:33:00,78.6,71.6,29.66,ESE,113,3.0,8.0,79,0.00,,,0.00,meteohub,2013-05-19 02:33:00,
2013-05-18 21:38:00,78.6,71.6,29.66,SE,130,5.0,8.0,79,0.00,,,0.00,meteohub,2013-05-19 02:38:00,
2013-05-18 21:43:00,78.4,71.8,29.66,ESE,115,3.0,7.0,80,0.00,,,0.00,meteohub,2013-05-19 02:43:00,
2013-05-18 21:48:00,78.3,71.6,29.67,ESE,123,2.0,7.0,80,0.00,,,0.00,meteohub,2013-05-19 02:48:00,
2013-05-18 21:53:00,78.3,71.6,29.67,South,175,2.0,7.0,80,0.00,,,0.00,meteohub,2013-05-19 02:53:00,
2013-05-18 21:58:00,78.1,71.4,29.67,SSE,165,3.0,11.0,80,0.00,,,0.00,meteohub,2013-05-19 02:58:00,
2013-05-18 22:03:00,78.1,71.8,29.67,SE,132,5.0,11.0,81,0.00,,,0.00,meteohub,2013-05-19 03:03:00,
2013-05-18 22:08:00,77.9,71.6,29.67,ESE,123,7.0,11.0,81,0.00,,,0.00,meteohub,2013-05-19 03:08:00,
2013-05-18 22:13:00,77.7,71.4,29.67,SE,128,3.0,12.0,81,0.00,,,0.00,meteohub,2013-05-19 03:13:00,
2013-05-18 22:18:00,77.7,71.4,29.67,SE,134,5.0,12.0,81,0.00,,,0.00,meteohub,2013-05-19 03:18:00,
2013-05-18 22:23:00,77.5,71.6,29.67,SE,144,6.0,12.0,82,0.00,,,0.00,meteohub,2013-05-19 03:23:00,
2013-05-18 22:28:00,77.5,71.6,29.67,ESE,121,3.0,12.0,82,0.00,,,0.00,meteohub,2013-05-19 03:28:00,
2013-05-18 22:33:00,77.5,71.6,29.67,SE,130,9.0,10.0,82,0.00,,,0.00,meteohub,2013-05-19 03:33:00,
2013-05-18 22:39:00,77.5,71.6,29.67,ESE,119,6.0,10.0,82,0.00,,,0.00,meteohub,2013-05-19 03:39:00,
2013-05-18 22:44:00,77.4,71.4,29.67,ESE,119,2.0,11.0,82,0.00,,,0.00,meteohub,2013-05-19 03:44:00,
2013-05-18 22:49:00,77.4,71.4,29.67,ESE,121,5.0,11.0,82,0.00,,,0.00,meteohub,2013-05-19 03:49:00,
2013-05-18 22:54:00,77.4,71.8,29.67,SE,139,4.0,11.0,83,0.00,,,0.00,meteohub,2013-05-19 03:54:00,
2013-05-18 22:59:00,77.4,71.8,29.68,SSE,157,7.0,9.0,83,0.00,,,0.00,meteohub,2013-05-19 03:59:00,
2013-05-18 23:01:00,77.4,71.8,29.68,SSE,163,4.0,9.0,83,0.00,,,0.00,meteohub,2013-05-19 04:01:00,
2013-05-18 23:06:00,77.2,71.6,29.68,SE,125,4.0,9.0,83,0.00,,,0.00,meteohub,2013-05-19 04:06:00,
2013-05-18 23:11:00,77.2,71.6,29.69,SSE,157,2.0,9.0,83,0.00,,,0.00,meteohub,2013-05-19 04:11:00,
2013-05-18 23:16:00,77.2,71.6,29.70,SE,142,6.0,10.0,83,0.00,,,0.00,meteohub,2013-05-19 04:16:00,
2013-05-18 23:21:00,77.2,72.0,29.69,SSE,157,3.0,10.0,84,0.00,,,0.00,meteohub,2013-05-19 04:21:00,
2013-05-18 23:26:00,77.2,72.0,29.70,SSE,156,5.0,10.0,84,0.00,,,0.00,meteohub,2013-05-19 04:26:00,
2013-05-18 23:31:00,77.2,72.0,29.70,SE,138,2.0,8.0,84,0.00,,,0.00,meteohub,2013-05-19 04:31:00,
2013-05-18 23:36:00,77.2,72.0,29.69,ESE,123,1.0,8.0,84,0.00,,,0.00,meteohub,2013-05-19 04:36:00,
2013-05-18 23:41:00,77.2,72.0,29.70,SE,129,4.0,8.0,84,0.00,,,0.00,meteohub,2013-05-19 04:41:00,
2013-05-18 23:46:00,77.2,72.0,29.71,SSE,164,1.0,8.0,84,0.00,,,0.00,meteohub,2013-05-19 04:46:00,
2013-05-18 23:51:00,77.0,72.1,29.71,SSE,158,2.0,8.0,85,0.00,,,0.00,meteohub,2013-05-19 04:51:00,
2013-05-18 23:56:00,77.2,72.3,29.71,SSE,148,2.0,8.0,85,0.00,,,0.00,meteohub,2013-05-19 04:56:00,